Pagrindinis puslapis
METAR-TAF:

METAR-TAF

Oro uostai :

Nome, Aliaska, Jungtinės Amerikos Valstijos

platuma: 64-30-43N, ilguma: 165-26-42W, Aukštis: 11 m

Dabartinis oras

Ataskaita buvo paskelbta 42 minutes, ne 18:53 UTC
Ramus vėjas
Temperatūra -8°C
Drėgmė 79%
Slėgis 1022 hPa
Matomumas: 16.1 km
Giedras dangus

METAR: PAOM 281853Z 00000KT 10SM CLR M08/M11 A3019 RMK AO2 SLP222 T10781106

Laikas: 11:35 (19:35 UTC)

Prognozė

Ataskaita buvo paskelbta 1 valandą ir 59 minutes, ne 17:36 UTC
Prognozė galioja nuo 28 metu 18 UTC su 29 metu 18 UTC
Vėjas kt iš Šiaurės
Matomumas: 10 km
Giedras dangus
Nuo 29 metu 0600 UTC
Vėjas 4 kt nuo kintamojo kryptimis
Matomumas: 10 km
Apsiniaukę ne aukštis 5000 ft
Nuo 29 metu 1200 UTC
Vėjas 5 kt iš Vakarų
Matomumas: 9.7 km
Apsiniaukę ne aukštis 2500 ft
sniegas

TAF: PAOM 281736Z 2818/2918 00000KT P6SM SKC FM290600 VRB04KT P6SM OVC050 FM291200 27005KT 6SM -SHSN OVC025

Orai ataskaitas ir orų prognozės (METAR, TAF).

turimą stotys yra geltonos ir raudonos taškus žemėlapyje.

Perkelti pele per norėdami pamatyti stoties vardą.

Tada spustelėkite, norėdami matyti oro stebėjimo ir prognozės.

Norėdami pakeisti žemėlapį: spustelėkite ant žalios mygtukų su juodo kryžiaus žemyn,; žalią mygtuką su brūkšneliu, jei norite nutolinti; arba žalių rodyklių gretimoms žemėlapius.


METAR-TAF: